createdAt,value
2023-02-04T00:03:40.778Z,1.00
2023-02-04T00:04:46.604Z,0.50
2023-02-04T00:05:49.805Z,0.00
2023-02-04T00:06:53.691Z,0.50
2023-02-04T00:07:57.625Z,0.50
2023-02-04T00:09:02.245Z,0.00
2023-02-04T00:10:04.873Z,0.00
2023-02-04T00:11:07.696Z,0.00
2023-02-04T00:13:31.084Z,0.00
2023-02-04T00:18:36.790Z,0.00
2023-02-04T00:21:00.154Z,0.00
2023-02-04T00:22:06.030Z,0.75
2023-02-04T00:23:20.692Z,0.50
2023-02-04T00:24:26.933Z,0.00
2023-02-04T00:25:30.054Z,0.00
2023-02-04T00:26:33.131Z,0.00
2023-02-04T00:28:58.071Z,0.00
2023-02-04T00:30:00.452Z,0.00
2023-02-04T00:31:03.404Z,0.25
2023-02-04T00:32:06.602Z,0.25
2023-02-04T00:33:10.467Z,0.00
2023-02-04T00:34:13.234Z,0.00
2023-02-04T00:35:16.086Z,0.00
2023-02-04T00:36:19.024Z,0.00
2023-02-04T00:37:24.142Z,0.00
2023-02-04T00:38:27.164Z,0.00
2023-02-04T00:39:30.596Z,1.50
2023-02-04T00:40:33.460Z,0.50
2023-02-04T00:41:40.038Z,0.00
2023-02-04T00:42:42.983Z,0.00
2023-02-04T00:43:45.828Z,0.00
2023-02-04T00:44:48.601Z,0.00
2023-02-04T00:45:51.539Z,0.00
2023-02-04T00:46:54.392Z,0.50
2023-02-04T00:47:57.328Z,0.25
2023-02-04T00:49:00.065Z,0.00
2023-02-04T00:50:02.912Z,0.00
2023-02-04T00:51:05.845Z,1.00
2023-02-04T00:52:08.893Z,1.00
2023-02-04T00:53:11.946Z,1.00
2023-02-04T00:54:14.698Z,1.25
2023-02-04T00:55:18.655Z,0.50
2023-02-04T00:56:21.593Z,0.00
2023-02-04T00:57:30.439Z,0.00
2023-02-04T00:58:33.198Z,0.00
2023-02-04T00:59:36.532Z,0.00
2023-02-04T01:00:39.488Z,0.00
2023-02-04T01:01:42.571Z,0.50
2023-02-04T01:02:45.976Z,0.00
2023-02-04T01:03:49.981Z,0.00
2023-02-04T01:04:52.800Z,0.00
2023-02-04T01:05:55.594Z,0.00
2023-02-04T01:07:07.756Z,0.00
2023-02-04T01:08:13.583Z,0.50
2023-02-04T01:10:38.209Z,0.00
2023-02-04T01:11:43.529Z,0.50
2023-02-04T01:12:50.474Z,0.75
2023-02-04T01:14:00.811Z,0.25
2023-02-04T01:15:20.635Z,0.00
2023-02-04T01:16:23.907Z,0.25
2023-02-04T01:17:26.745Z,1.25
2023-02-04T01:18:47.415Z,0.50
2023-02-04T01:21:13.690Z,0.00
2023-02-04T01:22:18.080Z,0.00
2023-02-04T01:23:22.948Z,0.00
2023-02-04T01:27:06.896Z,0.00
2023-02-04T01:28:13.554Z,0.00
2023-02-04T01:29:16.488Z,0.50
2023-02-04T01:31:45.815Z,0.00
2023-02-04T01:32:56.116Z,1.50
2023-02-04T01:35:21.377Z,0.00
2023-02-04T01:36:24.159Z,0.00
2023-02-04T01:37:31.104Z,0.50
2023-02-04T01:38:34.236Z,0.50
2023-02-04T01:39:38.851Z,0.00
2023-02-04T01:40:42.836Z,0.00
2023-02-04T01:41:45.759Z,0.00
2023-02-04T01:42:57.850Z,0.00
2023-02-04T01:44:02.589Z,0.00
2023-02-04T01:45:07.350Z,0.00
2023-02-04T01:46:11.774Z,0.25
2023-02-04T01:48:57.184Z,0.00
2023-02-04T01:51:18.401Z,0.00
2023-02-04T01:52:20.763Z,0.00
2023-02-04T01:56:16.472Z,0.00
2023-02-04T02:02:47.300Z,0.00
2023-02-04T02:04:02.659Z,0.50
2023-02-04T02:11:49.046Z,0.00
2023-02-04T02:16:55.256Z,0.00
2023-02-04T02:19:19.761Z,0.00
2023-02-04T02:20:22.562Z,0.50
2023-02-04T02:22:45.666Z,0.00
2023-02-04T02:23:53.986Z,0.00
2023-02-04T02:24:56.646Z,0.00
2023-02-04T02:25:59.613Z,0.00
2023-02-04T02:27:04.184Z,0.00
2023-02-04T02:28:07.191Z,0.00
2023-02-04T02:29:10.195Z,0.00
2023-02-04T02:30:15.863Z,0.00
2023-02-04T02:32:43.928Z,0.00
2023-02-04T02:33:48.575Z,0.00
2023-02-04T02:34:53.546Z,0.00
2023-02-04T02:40:03.518Z,0.00
2023-02-04T02:41:14.335Z,0.00
2023-02-04T02:42:34.597Z,0.00
2023-02-04T02:43:38.255Z,0.00
2023-02-04T02:44:59.414Z,0.00
2023-02-04T02:46:02.410Z,0.00
2023-02-04T02:48:33.452Z,0.00
2023-02-04T02:50:57.506Z,0.00
2023-02-04T02:52:01.983Z,0.00
2023-02-04T02:53:04.419Z,0.00
2023-02-04T02:54:14.134Z,0.00
2023-02-04T02:55:21.290Z,0.00
2023-02-04T02:56:24.545Z,0.00
2023-02-04T02:57:35.658Z,0.00
2023-02-04T02:58:38.356Z,0.00
2023-02-04T02:59:47.950Z,0.00
2023-02-04T03:00:51.473Z,0.50
2023-02-04T03:01:56.043Z,0.50
2023-02-04T03:02:59.645Z,0.00
2023-02-04T03:04:07.712Z,0.00
2023-02-04T03:05:10.707Z,0.00
2023-02-04T03:06:14.220Z,0.00
2023-02-04T03:07:26.329Z,0.00
2023-02-04T03:09:53.940Z,0.00
2023-02-04T03:11:00.114Z,0.50
2023-02-04T03:12:04.287Z,0.00
2023-02-04T03:13:08.619Z,0.00
2023-02-04T03:14:12.088Z,0.00
2023-02-04T03:15:15.178Z,0.00
2023-02-04T03:16:24.435Z,0.00
2023-02-04T03:17:34.318Z,0.00
2023-02-04T03:18:38.876Z,0.00
2023-02-04T03:19:41.664Z,0.00
2023-02-04T03:20:53.850Z,0.00
2023-02-04T03:22:02.493Z,0.00
2023-02-04T03:23:05.463Z,0.00
2023-02-04T03:24:12.423Z,0.00
2023-02-04T03:25:18.576Z,0.00
2023-02-04T03:26:21.611Z,0.00
2023-02-04T03:27:24.310Z,0.00
2023-02-04T03:28:27.146Z,0.00
2023-02-04T03:29:32.712Z,0.00
2023-02-04T03:31:56.049Z,0.00
2023-02-04T03:33:04.457Z,0.00
2023-02-04T03:34:07.756Z,0.00
2023-02-04T03:35:10.951Z,0.00
2023-02-04T03:36:14.065Z,0.00
2023-02-04T03:38:37.646Z,0.00
2023-02-04T03:39:40.867Z,0.50
2023-02-04T03:40:43.855Z,0.00
2023-02-04T03:41:47.433Z,0.00
2023-02-04T03:42:50.418Z,0.00
2023-02-04T03:43:54.685Z,0.00
2023-02-04T03:45:09.018Z,0.00
2023-02-04T03:47:40.933Z,0.50
2023-02-04T03:48:50.317Z,0.00
2023-02-04T03:51:14.036Z,0.00
2023-02-04T03:52:17.163Z,0.00
2023-02-04T03:53:20.284Z,0.00
2023-02-04T03:54:23.460Z,0.00
2023-02-04T03:56:51.553Z,0.00
2023-02-04T03:57:55.491Z,0.00
2023-02-04T03:59:00.281Z,0.00
2023-02-04T04:00:13.877Z,0.50
2023-02-04T04:01:17.017Z,0.50
2023-02-04T04:02:20.127Z,0.00
2023-02-04T04:03:23.115Z,0.00
2023-02-04T04:04:25.875Z,0.00
2023-02-04T04:05:28.863Z,0.00
2023-02-04T04:06:31.761Z,0.00
2023-02-04T04:07:34.714Z,0.00
2023-02-04T04:08:37.758Z,0.00
2023-02-04T04:09:40.518Z,0.00
2023-02-04T04:10:43.295Z,0.00
2023-02-04T04:11:45.949Z,0.00
2023-02-04T04:12:51.338Z,0.00
2023-02-04T04:13:54.657Z,0.00
2023-02-04T04:14:57.749Z,0.00
2023-02-04T04:16:00.764Z,0.00
2023-02-04T04:17:03.966Z,0.00
2023-02-04T04:18:07.501Z,0.00
2023-02-04T04:19:10.195Z,0.00
2023-02-04T04:20:13.042Z,0.00
2023-02-04T04:21:16.021Z,0.00
2023-02-04T04:22:19.046Z,0.00
2023-02-04T04:23:22.233Z,0.00
2023-02-04T04:24:25.384Z,0.00
2023-02-04T04:25:29.658Z,0.00
2023-02-04T04:26:33.009Z,0.00
2023-02-04T04:27:36.172Z,0.00
2023-02-04T04:28:40.352Z,0.00
2023-02-04T04:29:43.606Z,0.00
2023-02-04T04:30:47.025Z,0.00
2023-02-04T04:31:50.095Z,0.00
2023-02-04T04:32:53.199Z,0.00
2023-02-04T04:33:56.250Z,0.00
2023-02-04T04:36:19.915Z,0.00
2023-02-04T04:37:22.839Z,0.00
2023-02-04T04:39:46.427Z,0.00
2023-02-04T04:40:49.364Z,0.00
2023-02-04T04:41:52.501Z,0.00
2023-02-04T04:42:55.943Z,0.00
2023-02-04T04:43:58.952Z,0.00
2023-02-04T04:45:01.920Z,0.00
2023-02-04T04:46:04.833Z,0.00
2023-02-04T04:47:07.975Z,0.00
2023-02-04T04:48:12.219Z,0.00
2023-02-04T04:49:15.326Z,0.00
2023-02-04T04:50:18.452Z,0.00
2023-02-04T04:51:21.464Z,0.00
2023-02-04T04:52:24.554Z,0.00
2023-02-04T04:53:27.808Z,0.00
2023-02-04T04:54:30.947Z,0.00
2023-02-04T04:55:34.099Z,0.00
2023-02-04T04:56:39.125Z,0.00
2023-02-04T04:57:42.163Z,0.00
2023-02-04T04:58:45.221Z,0.00
2023-02-04T04:59:49.847Z,0.00
2023-02-04T05:00:52.961Z,0.00
2023-02-04T05:01:56.134Z,0.00
2023-02-04T05:02:59.232Z,0.00
2023-02-04T05:04:02.309Z,0.00
2023-02-04T05:05:06.945Z,0.00
2023-02-04T05:06:10.039Z,0.50
2023-02-04T05:07:23.441Z,0.00
2023-02-04T05:08:26.493Z,0.00
2023-02-04T05:09:31.284Z,0.00
2023-02-04T05:10:34.271Z,0.00
2023-02-04T05:12:57.514Z,0.00
2023-02-04T05:14:00.411Z,0.00
2023-02-04T05:15:03.264Z,0.00
2023-02-04T05:16:07.688Z,0.00
2023-02-04T05:18:36.592Z,0.00
2023-02-04T05:19:39.672Z,0.00
2023-02-04T05:20:45.435Z,0.50
2023-02-04T05:21:48.796Z,0.50
2023-02-04T05:22:58.394Z,0.00
2023-02-04T05:24:02.338Z,0.00
2023-02-04T05:25:05.320Z,0.00
2023-02-04T05:26:07.991Z,0.00
2023-02-04T05:27:11.377Z,0.00
2023-02-04T05:28:14.364Z,0.00
2023-02-04T05:29:17.335Z,0.00
2023-02-04T05:30:20.526Z,0.00
2023-02-04T05:31:26.686Z,0.00
2023-02-04T05:32:29.663Z,0.00
2023-02-04T05:33:32.607Z,0.00
2023-02-04T05:34:39.926Z,0.00
2023-02-04T05:35:43.175Z,0.00
2023-02-04T05:36:46.175Z,0.00
2023-02-04T05:37:49.242Z,0.00
2023-02-04T05:38:55.801Z,0.00
2023-02-04T05:40:03.129Z,0.00
2023-02-04T05:41:05.954Z,0.00
2023-02-04T05:42:08.838Z,0.00
2023-02-04T05:43:11.712Z,0.00
2023-02-04T05:44:14.608Z,0.00
2023-02-04T05:45:17.280Z,0.00
2023-02-04T05:46:20.087Z,0.00
2023-02-04T05:47:23.142Z,0.00
2023-02-04T05:48:25.910Z,0.00
2023-02-04T05:49:28.607Z,0.00
2023-02-04T05:50:31.809Z,0.00
2023-02-04T05:51:36.090Z,0.00
2023-02-04T05:52:38.813Z,0.00
2023-02-04T05:53:41.984Z,0.00
2023-02-04T05:54:44.970Z,0.00
2023-02-04T05:55:49.676Z,0.00
2023-02-04T05:56:53.636Z,0.00
2023-02-04T05:57:56.601Z,0.00
2023-02-04T05:58:59.415Z,0.00
2023-02-04T06:00:02.137Z,0.00
2023-02-04T06:01:04.877Z,0.00
2023-02-04T06:02:07.709Z,0.00
2023-02-04T06:03:26.869Z,0.00
2023-02-04T06:04:29.855Z,0.00
2023-02-04T06:05:34.197Z,0.00
2023-02-04T06:06:38.404Z,0.00
2023-02-04T06:07:41.358Z,0.00
2023-02-04T06:08:44.249Z,0.00
2023-02-04T06:09:47.229Z,0.00
2023-02-04T06:10:50.073Z,0.00
2023-02-04T06:11:53.193Z,0.00
2023-02-04T06:12:56.290Z,0.00
2023-02-04T06:13:59.585Z,0.00
2023-02-04T06:15:02.595Z,0.00
2023-02-04T06:16:05.716Z,0.00
2023-02-04T06:17:11.667Z,0.00
2023-02-04T06:19:34.601Z,0.00
2023-02-04T06:20:49.772Z,0.00
2023-02-04T06:21:54.078Z,0.00
2023-02-04T06:22:56.944Z,0.00
2023-02-04T06:24:00.294Z,0.00
2023-02-04T06:25:03.364Z,0.00
2023-02-04T06:26:06.431Z,0.00
2023-02-04T06:27:09.353Z,0.00
2023-02-04T06:28:12.383Z,0.00
2023-02-04T06:29:15.341Z,0.00
2023-02-04T06:30:18.496Z,0.00
2023-02-04T06:32:42.601Z,0.00
2023-02-04T06:33:46.586Z,0.00
2023-02-04T06:34:49.558Z,0.00
2023-02-04T06:35:52.862Z,0.00
2023-02-04T06:36:57.208Z,0.00
2023-02-04T06:39:20.949Z,0.00
2023-02-04T06:40:23.925Z,0.00
2023-02-04T06:41:26.750Z,0.00
2023-02-04T06:42:30.942Z,0.00
2023-02-04T06:43:33.987Z,0.00
2023-02-04T06:44:39.888Z,0.00
2023-02-04T06:45:43.359Z,0.00
2023-02-04T06:46:50.907Z,0.00
2023-02-04T06:47:53.827Z,0.00
2023-02-04T06:48:59.466Z,0.00
2023-02-04T06:50:02.537Z,0.00
2023-02-04T06:51:05.623Z,0.00
2023-02-04T06:52:08.627Z,0.00
2023-02-04T06:54:31.892Z,0.00
2023-02-04T06:55:50.639Z,0.00
2023-02-04T06:56:54.064Z,0.00
2023-02-04T06:57:57.177Z,0.00
2023-02-04T07:01:46.589Z,0.00
2023-02-04T07:04:11.853Z,0.00
2023-02-04T07:09:30.429Z,0.00
2023-02-04T07:10:33.388Z,0.00
2023-02-04T07:14:25.833Z,0.00
2023-02-04T07:15:28.916Z,0.00
2023-02-04T07:19:18.196Z,0.00
2023-02-04T07:20:21.834Z,0.00
2023-02-04T07:24:20.396Z,0.00
2023-02-04T07:25:22.749Z,0.00
2023-02-04T07:26:25.603Z,0.00
2023-02-04T07:27:36.433Z,0.00
2023-02-04T07:28:51.266Z,0.00
2023-02-04T07:35:10.537Z,0.00
2023-02-04T07:36:15.226Z,0.00
2023-02-04T07:40:06.130Z,0.00
2023-02-04T07:41:10.408Z,0.00
2023-02-04T07:42:15.485Z,0.00
2023-02-04T07:43:23.017Z,0.00
2023-02-04T07:45:49.318Z,0.00
2023-02-04T07:46:52.316Z,0.00
2023-02-04T07:47:55.149Z,0.00
2023-02-04T07:49:00.627Z,0.00
2023-02-04T07:50:12.071Z,0.00
2023-02-04T07:51:14.925Z,0.00
2023-02-04T07:52:17.780Z,0.00
2023-02-04T07:53:24.866Z,0.00
2023-02-04T07:54:38.248Z,0.00
2023-02-04T07:58:23.258Z,0.00
2023-02-04T08:00:46.624Z,0.50
2023-02-04T08:01:49.457Z,0.00
2023-02-04T08:02:59.747Z,0.00
2023-02-04T08:04:02.902Z,0.00
2023-02-04T08:05:07.013Z,0.00
2023-02-04T08:06:11.666Z,0.00
2023-02-04T08:07:14.303Z,0.00
2023-02-04T08:08:17.641Z,0.00
2023-02-04T08:09:25.593Z,0.00
2023-02-04T08:10:30.567Z,0.00
2023-02-04T08:11:54.549Z,0.00
2023-02-04T08:12:58.796Z,0.00
2023-02-04T08:14:01.697Z,0.00
2023-02-04T08:15:07.440Z,0.00
2023-02-04T08:16:11.926Z,0.00
2023-02-04T08:18:36.272Z,0.00
2023-02-04T08:19:40.535Z,0.00
2023-02-04T08:20:46.008Z,0.00
2023-02-04T08:23:13.640Z,0.00
2023-02-04T08:24:20.582Z,0.00
2023-02-04T08:28:17.600Z,0.00
2023-02-04T08:34:47.230Z,0.00
2023-02-04T08:35:50.084Z,0.00
2023-02-04T08:38:13.991Z,0.25
2023-02-04T08:39:23.488Z,0.00
2023-02-04T08:41:46.891Z,0.00
2023-02-04T08:56:02.928Z,1.25
2023-02-04T09:01:27.532Z,0.00
2023-02-04T09:02:46.908Z,0.00
2023-02-04T09:05:10.534Z,0.50
2023-02-04T09:10:17.625Z,0.50
2023-02-04T09:11:36.037Z,0.50
2023-02-04T09:12:50.291Z,0.00
2023-02-04T09:14:00.048Z,0.75
2023-02-04T09:15:02.626Z,0.00
2023-02-04T09:16:05.602Z,0.50
2023-02-04T09:17:08.429Z,0.00
2023-02-04T09:18:11.491Z,2.00
2023-02-04T09:19:21.892Z,2.00
2023-02-04T09:20:27.212Z,0.50
2023-02-04T09:22:55.863Z,1.00
2023-02-04T09:24:00.682Z,0.00
2023-02-04T09:29:05.810Z,0.00
2023-02-04T09:30:08.903Z,0.50
2023-02-04T09:31:14.634Z,0.50
2023-02-04T09:32:17.541Z,0.00
2023-02-04T09:33:20.381Z,0.00
2023-02-04T09:34:23.369Z,0.50
2023-02-04T09:37:05.872Z,0.25
2023-02-04T09:39:32.392Z,0.00
2023-02-04T09:40:35.451Z,0.00
2023-02-04T09:41:40.129Z,0.50
2023-02-04T09:44:07.496Z,0.00
2023-02-04T09:45:10.510Z,0.00
2023-02-04T09:47:42.733Z,0.50
2023-02-04T09:48:47.928Z,0.00
2023-02-04T09:49:50.734Z,0.50
2023-02-04T09:52:14.513Z,0.00
2023-02-04T09:53:17.555Z,0.00
2023-02-04T09:54:22.407Z,0.50
2023-02-04T09:55:31.036Z,0.00
2023-02-04T09:56:35.486Z,0.50
2023-02-04T09:57:55.838Z,0.50
2023-02-04T09:58:58.611Z,0.50
2023-02-04T10:00:03.026Z,0.00
2023-02-04T10:01:07.718Z,0.50
2023-02-04T10:02:10.350Z,1.50
2023-02-04T10:03:13.168Z,0.50
2023-02-04T10:04:16.154Z,1.25
2023-02-04T10:05:19.670Z,1.75
2023-02-04T10:06:32.713Z,0.25
2023-02-04T10:07:37.241Z,0.25
2023-02-04T10:10:00.144Z,0.50
2023-02-04T10:11:02.977Z,0.50
2023-02-04T10:12:05.673Z,0.00
2023-02-04T10:13:08.576Z,0.00
2023-02-04T10:14:11.552Z,0.50
2023-02-04T10:15:14.303Z,1.00
2023-02-04T10:16:18.294Z,0.75
2023-02-04T10:17:21.002Z,0.00
2023-02-04T10:18:23.992Z,0.00
2023-02-04T10:19:30.108Z,0.50
2023-02-04T10:20:33.244Z,0.00
2023-02-04T10:21:36.280Z,0.50
2023-02-04T10:23:59.690Z,0.50
2023-02-04T10:26:23.088Z,0.00
2023-02-04T10:27:27.587Z,0.00
2023-02-04T10:28:41.629Z,0.50
2023-02-04T10:29:44.213Z,0.75
2023-02-04T10:30:50.307Z,0.00
2023-02-04T10:31:55.510Z,0.50
2023-02-04T10:32:58.517Z,0.50
2023-02-04T10:34:01.479Z,1.00
2023-02-04T10:35:05.271Z,1.50
2023-02-04T10:36:09.601Z,1.00
2023-02-04T10:37:12.593Z,0.75
2023-02-04T10:38:19.046Z,0.50
2023-02-04T10:39:23.598Z,0.50
2023-02-04T10:40:26.626Z,0.25
2023-02-04T10:41:29.434Z,0.00
2023-02-04T10:42:32.515Z,0.00
2023-02-04T10:43:35.654Z,0.75
2023-02-04T10:44:42.010Z,0.25
2023-02-04T10:46:02.781Z,1.00
2023-02-04T10:47:06.986Z,0.50
2023-02-04T10:48:10.946Z,0.50
2023-02-04T10:50:35.707Z,1.00
2023-02-04T10:51:40.428Z,0.50
2023-02-04T10:52:43.137Z,0.75
2023-02-04T10:53:45.890Z,0.50
2023-02-04T10:54:49.040Z,1.25
2023-02-04T10:55:53.166Z,1.50
2023-02-04T10:56:57.492Z,1.00
2023-02-04T10:58:09.021Z,1.00
2023-02-04T10:59:13.430Z,1.00
2023-02-04T11:00:15.996Z,1.00
2023-02-04T11:01:30.477Z,0.75
2023-02-04T11:02:33.455Z,1.00
2023-02-04T11:03:36.545Z,1.00
2023-02-04T11:04:39.579Z,0.50
2023-02-04T11:05:42.322Z,0.25
2023-02-04T11:06:45.337Z,0.25
2023-02-04T11:07:48.715Z,1.00
2023-02-04T11:08:51.757Z,1.00
2023-02-04T11:09:54.877Z,0.00
2023-02-04T11:10:57.736Z,1.00
2023-02-04T11:13:21.052Z,1.00
2023-02-04T11:14:24.162Z,1.60
2023-02-04T11:15:27.055Z,2.00
2023-02-04T11:20:31.483Z,1.00
2023-02-04T11:21:36.280Z,1.00
2023-02-04T11:22:56.066Z,1.00
2023-02-04T11:24:00.508Z,1.50
2023-02-04T11:25:04.522Z,1.00
2023-02-04T11:26:12.878Z,0.50
2023-02-04T11:27:16.238Z,0.00
2023-02-04T11:28:19.364Z,1.00
2023-02-04T11:29:27.704Z,0.50
2023-02-04T11:30:34.801Z,0.50
2023-02-04T11:31:42.852Z,0.50
2023-02-04T11:32:49.708Z,1.00
2023-02-04T11:33:52.774Z,0.00
2023-02-04T11:34:57.114Z,0.50
2023-02-04T11:36:01.886Z,0.75
2023-02-04T11:37:04.557Z,1.00
2023-02-04T11:38:13.811Z,0.75
2023-02-04T11:39:24.696Z,0.00
2023-02-04T11:40:36.831Z,0.50
2023-02-04T11:41:44.689Z,1.00
2023-02-04T11:42:49.063Z,1.50
2023-02-04T11:43:51.476Z,0.00
2023-02-04T11:44:54.206Z,0.50
2023-02-04T11:45:57.391Z,1.00
2023-02-04T11:47:09.407Z,0.50
2023-02-04T11:49:35.809Z,1.00
2023-02-04T11:50:38.585Z,1.00
2023-02-04T11:51:41.737Z,1.00
2023-02-04T11:54:05.106Z,0.50
2023-02-04T11:55:07.943Z,1.00
2023-02-04T11:56:14.221Z,0.50
2023-02-04T11:57:17.198Z,0.50
2023-02-04T11:58:20.245Z,0.50
2023-02-04T11:59:24.745Z,1.25
2023-02-04T12:00:27.434Z,1.50
2023-02-04T12:01:31.260Z,0.75
2023-02-04T12:02:34.094Z,1.00
2023-02-04T12:03:37.198Z,0.75
2023-02-04T12:04:40.995Z,1.00
2023-02-04T12:05:43.924Z,1.00
2023-02-04T12:06:46.634Z,1.00
2023-02-04T12:07:49.442Z,1.00
2023-02-04T12:08:53.567Z,0.50
2023-02-04T12:09:56.282Z,0.00
2023-02-04T12:10:59.092Z,1.00
2023-02-04T12:12:01.975Z,0.50
2023-02-04T12:13:04.858Z,0.50
2023-02-04T12:14:07.831Z,0.50
2023-02-04T12:15:12.557Z,0.50
2023-02-04T12:16:15.475Z,0.50
2023-02-04T12:17:21.416Z,0.50
2023-02-04T12:18:24.556Z,0.50
2023-02-04T12:19:27.989Z,0.00
2023-02-04T12:20:30.894Z,1.00
2023-02-04T12:21:34.836Z,0.50
2023-02-04T12:22:49.971Z,0.00
2023-02-04T12:23:53.040Z,1.00
2023-02-04T12:24:56.096Z,1.00
2023-02-04T12:25:59.283Z,1.00
2023-02-04T12:27:02.015Z,1.00
2023-02-04T12:28:05.127Z,0.00
2023-02-04T12:29:15.143Z,1.00
2023-02-04T12:31:39.576Z,0.50
2023-02-04T12:32:43.238Z,0.00
2023-02-04T12:33:46.373Z,0.00
2023-02-04T12:34:49.587Z,0.00
2023-02-04T12:35:52.460Z,0.75
2023-02-04T12:36:55.431Z,1.00
2023-02-04T12:38:15.398Z,0.50
2023-02-04T12:39:19.268Z,0.50
2023-02-04T12:40:23.332Z,1.00
2023-02-04T12:41:26.129Z,0.50
2023-02-04T12:43:53.409Z,0.50
2023-02-04T12:44:56.213Z,0.50
2023-02-04T12:45:59.010Z,1.00
2023-02-04T12:47:01.965Z,0.50
2023-02-04T12:48:07.010Z,1.00
2023-02-04T12:49:10.004Z,1.00
2023-02-04T12:50:13.007Z,1.50
2023-02-04T12:51:20.413Z,0.50
2023-02-04T12:52:27.224Z,0.50
2023-02-04T12:53:47.744Z,1.00
2023-02-04T12:54:50.763Z,1.00
2023-02-04T12:55:56.103Z,1.25
2023-02-04T12:56:59.652Z,1.00
2023-02-04T12:59:23.039Z,0.50
2023-02-04T13:00:26.364Z,1.50
2023-02-04T13:01:29.383Z,0.50
2023-02-04T13:02:32.522Z,0.25
2023-02-04T13:03:37.703Z,0.50
2023-02-04T13:04:42.351Z,1.50
2023-02-04T13:05:45.333Z,1.50
2023-02-04T13:06:51.571Z,1.00
2023-02-04T13:07:54.289Z,0.50
2023-02-04T13:10:17.792Z,1.00
2023-02-04T13:11:20.568Z,0.50
2023-02-04T13:12:23.522Z,0.50
2023-02-04T13:13:26.795Z,1.00
2023-02-04T13:14:29.594Z,1.00
2023-02-04T13:15:32.872Z,1.00
2023-02-04T13:16:39.326Z,1.00
2023-02-04T13:17:42.313Z,0.50
2023-02-04T13:18:45.345Z,0.50
2023-02-04T13:19:48.288Z,1.00
2023-02-04T13:20:50.999Z,0.75
2023-02-04T13:21:53.841Z,0.50
2023-02-04T13:22:56.572Z,1.00
2023-02-04T13:24:00.650Z,0.50
2023-02-04T13:25:06.632Z,1.00
2023-02-04T13:26:10.111Z,1.00
2023-02-04T13:27:13.789Z,1.00
2023-02-04T13:28:17.023Z,1.00
2023-02-04T13:29:21.045Z,0.50
2023-02-04T13:30:24.092Z,0.50
2023-02-04T13:31:32.783Z,0.00
2023-02-04T13:32:35.536Z,0.00
2023-02-04T13:33:38.449Z,0.50
2023-02-04T13:34:41.294Z,1.00
2023-02-04T13:35:44.136Z,1.00
2023-02-04T13:36:48.277Z,0.75
2023-02-04T13:39:11.486Z,0.50
2023-02-04T13:40:14.253Z,0.50
2023-02-04T13:41:17.047Z,1.00
2023-02-04T13:42:20.073Z,1.00
2023-02-04T13:43:23.087Z,1.00
2023-02-04T13:44:25.965Z,1.50
2023-02-04T13:45:28.723Z,0.75
2023-02-04T13:46:31.794Z,0.00
2023-02-04T13:47:34.989Z,0.00
2023-02-04T13:48:37.916Z,0.00
2023-02-04T13:49:41.050Z,0.00
2023-02-04T13:50:44.132Z,0.50
2023-02-04T13:51:46.999Z,0.50
2023-02-04T13:52:50.100Z,0.50
2023-02-04T13:53:53.213Z,1.00
2023-02-04T13:55:00.852Z,1.00
2023-02-04T13:56:04.960Z,0.50
2023-02-04T13:57:08.144Z,0.50
2023-02-04T13:58:15.876Z,0.50
2023-02-04T13:59:20.153Z,1.00
2023-02-04T14:00:22.729Z,1.00
2023-02-04T14:01:25.660Z,0.50
2023-02-04T14:02:28.487Z,0.50
2023-02-04T14:03:31.695Z,0.25
2023-02-04T14:04:36.866Z,0.50
2023-02-04T14:05:40.229Z,0.50
2023-02-04T14:06:43.375Z,0.50
2023-02-04T14:07:47.336Z,1.00
2023-02-04T14:08:50.660Z,0.50
2023-02-04T14:09:55.732Z,0.75
2023-02-04T14:11:01.656Z,1.25
2023-02-04T14:13:25.014Z,0.50
2023-02-04T14:14:28.097Z,0.50
2023-02-04T14:15:30.793Z,1.00
2023-02-04T14:16:34.826Z,1.25
2023-02-04T14:17:37.446Z,0.50
2023-02-04T14:18:40.234Z,1.50
2023-02-04T14:19:42.913Z,1.00
2023-02-04T14:20:45.746Z,0.25
2023-02-04T14:21:48.525Z,0.25
2023-02-04T14:22:51.229Z,0.00
2023-02-04T14:23:54.010Z,0.00
2023-02-04T14:24:56.693Z,0.50
2023-02-04T14:25:59.507Z,0.50
2023-02-04T14:27:02.273Z,0.00
2023-02-04T14:28:05.288Z,0.00
2023-02-04T14:29:17.244Z,0.50
2023-02-04T14:30:20.047Z,0.50
2023-02-04T14:31:22.947Z,0.50
2023-02-04T14:32:25.772Z,0.00
2023-02-04T14:33:28.473Z,0.40
2023-02-04T14:34:31.188Z,0.00
2023-02-04T14:35:34.286Z,0.50
2023-02-04T14:36:36.998Z,0.50
2023-02-04T14:37:39.727Z,0.00
2023-02-04T14:38:42.533Z,0.50
2023-02-04T14:39:45.456Z,1.00
2023-02-04T14:40:48.235Z,0.75
2023-02-04T14:41:51.010Z,0.50
2023-02-04T14:42:53.846Z,0.40
2023-02-04T14:43:56.597Z,0.25
2023-02-04T14:44:59.346Z,0.75
2023-02-04T14:46:03.497Z,1.00
2023-02-04T14:47:06.192Z,1.00
2023-02-04T14:48:09.057Z,1.00
2023-02-04T14:49:11.746Z,0.50
2023-02-04T14:50:14.499Z,0.50
2023-02-04T14:51:17.213Z,0.50
2023-02-04T14:52:19.980Z,1.00
2023-02-04T14:53:22.757Z,1.00
2023-02-04T14:54:25.775Z,0.50
2023-02-04T14:55:28.647Z,0.25
2023-02-04T14:56:33.418Z,0.50
2023-02-04T14:57:36.223Z,0.50
2023-02-04T14:58:39.054Z,0.25
2023-02-04T14:59:41.969Z,0.50
2023-02-04T15:00:45.711Z,0.00
2023-02-04T15:01:48.465Z,0.50
2023-02-04T15:02:52.764Z,1.00
2023-02-04T15:03:55.639Z,1.00
2023-02-04T15:04:58.398Z,0.50
2023-02-04T15:06:05.398Z,0.50
2023-02-04T15:07:08.339Z,1.00
2023-02-04T15:08:11.254Z,1.50
2023-02-04T15:09:14.011Z,1.50
2023-02-04T15:10:16.883Z,1.00
2023-02-04T15:11:19.817Z,0.00
2023-02-04T15:12:22.670Z,0.50
2023-02-04T15:13:27.813Z,0.50
2023-02-04T15:14:30.523Z,1.00
2023-02-04T15:15:33.340Z,1.00
2023-02-04T15:16:36.058Z,1.25
2023-02-04T15:17:38.768Z,1.00
2023-02-04T15:18:41.457Z,0.75
2023-02-04T15:19:44.156Z,0.50
2023-02-04T15:20:49.483Z,1.00
2023-02-04T15:21:52.268Z,0.50
2023-02-04T15:22:55.023Z,0.00
2023-02-04T15:23:57.822Z,0.00
2023-02-04T15:25:00.540Z,0.50
2023-02-04T15:26:03.197Z,0.25
2023-02-04T15:27:06.125Z,1.00
2023-02-04T15:28:10.334Z,1.00
2023-02-04T15:29:12.830Z,1.00
2023-02-04T15:30:15.589Z,1.00
2023-02-04T15:31:18.434Z,1.00
2023-02-04T15:32:21.263Z,1.00
2023-02-04T15:33:23.959Z,0.50
2023-02-04T15:34:26.797Z,0.50
2023-02-04T15:35:29.540Z,0.50
2023-02-04T15:36:32.252Z,0.50
2023-02-04T15:37:35.022Z,0.50
2023-02-04T15:38:37.772Z,0.75
2023-02-04T15:39:44.076Z,1.00
2023-02-04T15:40:46.986Z,0.50
2023-02-04T15:41:49.753Z,0.50
2023-02-04T15:42:52.520Z,0.50
2023-02-04T15:43:55.209Z,0.00
2023-02-04T15:44:57.869Z,0.50
2023-02-04T15:46:00.657Z,1.00
2023-02-04T15:47:06.352Z,1.00
2023-02-04T15:48:08.811Z,1.00
2023-02-04T15:49:11.420Z,0.50
2023-02-04T15:50:14.202Z,0.50
2023-02-04T15:51:16.967Z,1.00
2023-02-04T15:52:24.563Z,0.50
2023-02-04T15:53:23.948Z,0.25
2023-02-04T15:54:26.716Z,0.00
2023-02-04T15:55:30.406Z,0.50
2023-02-04T15:56:33.086Z,0.50
2023-02-04T15:57:36.045Z,0.50
2023-02-04T15:58:38.763Z,1.00
2023-02-04T15:59:41.747Z,0.50
2023-02-04T16:00:44.730Z,0.50
2023-02-04T16:01:47.770Z,1.00
2023-02-04T16:02:50.799Z,0.50
2023-02-04T16:03:54.915Z,0.50
2023-02-04T16:04:57.894Z,1.00
2023-02-04T16:06:00.947Z,1.40
2023-02-04T16:07:09.494Z,1.00
2023-02-04T16:08:12.190Z,0.50
2023-02-04T16:09:14.972Z,1.00
2023-02-04T16:10:18.346Z,0.75
2023-02-04T16:11:21.491Z,0.50
2023-02-04T16:12:27.127Z,0.25
2023-02-04T16:13:29.401Z,1.00
2023-02-04T16:14:32.163Z,1.50
2023-02-04T16:15:35.248Z,2.00
2023-02-04T16:16:38.340Z,0.50
2023-02-04T16:17:41.340Z,1.00
2023-02-04T16:18:44.084Z,0.50
2023-02-04T16:19:46.932Z,0.00
2023-02-04T16:20:49.776Z,0.25
2023-02-04T16:21:55.529Z,0.80
2023-02-04T16:22:58.366Z,1.00
2023-02-04T16:24:01.371Z,0.50
2023-02-04T16:25:04.236Z,0.50
2023-02-04T16:26:07.061Z,0.50
2023-02-04T16:27:09.990Z,0.50
2023-02-04T16:28:12.877Z,1.00
2023-02-04T16:29:15.791Z,1.00
2023-02-04T16:31:39.016Z,0.00
2023-02-04T16:32:41.755Z,0.50
2023-02-04T16:33:44.675Z,0.25
2023-02-04T16:34:47.437Z,0.50
2023-02-04T16:35:50.357Z,1.00
2023-02-04T16:36:53.047Z,0.00
2023-02-04T16:37:55.712Z,0.50
2023-02-04T16:39:01.426Z,1.00
2023-02-04T16:40:04.193Z,1.00
2023-02-04T16:41:23.593Z,0.50
2023-02-04T16:42:27.935Z,0.00
2023-02-04T16:43:31.434Z,0.50
2023-02-04T16:44:34.507Z,0.00
2023-02-04T16:45:39.103Z,0.00
2023-02-04T16:46:41.628Z,0.50
2023-02-04T16:47:44.752Z,1.00
2023-02-04T16:48:47.613Z,1.00
2023-02-04T16:49:50.669Z,1.00
2023-02-04T16:50:53.590Z,1.50
2023-02-04T16:51:56.675Z,1.00
2023-02-04T16:53:00.795Z,1.00
2023-02-04T16:54:03.748Z,1.00
2023-02-04T16:55:06.828Z,1.00
2023-02-04T16:56:09.585Z,0.50
2023-02-04T16:57:12.502Z,0.25
2023-02-04T16:58:15.569Z,0.00
2023-02-04T16:59:18.437Z,0.50
2023-02-04T17:00:21.430Z,1.00
2023-02-04T17:01:24.465Z,1.00
2023-02-04T17:02:27.391Z,0.50
2023-02-04T17:03:30.444Z,0.50
2023-02-04T17:04:33.352Z,1.00
2023-02-04T17:05:39.164Z,1.00
2023-02-04T17:06:42.011Z,0.75
2023-02-04T17:07:44.841Z,0.50
2023-02-04T17:08:47.525Z,1.00
2023-02-04T17:09:50.393Z,0.50